»·PEaware :: N647RG KPOC-P20

N647RG :: KPOC-P20

FLIGHT INFORMATION

Flight Status: Arrived
Operator: Privately registered:
United States
More flights under this callsign
Pilot: Jerome R. (37648)
Aircraft: BEECH AIRCRAFT TURBINE BONANZA
(B36T)
More flights by this aircraft type
Origin: KPOC Brackett
United States
Destination: P20 Avi Suquilla
United States
More flights between these airports :: More routes between these airports
Route: PRADO V16 PDZ V186 NIKKL V64 TRM V432 PKE
File this flight plan on PilotEdge
Remarks:
Altitude:
(Current/Filed)
13,000ft
Speed:
(Current/Filed)
189kts
Departed: 27-Aug-23 09:08 AM
Arrived: 27-Aug-23 10:15 AM
Distance/Time
Traveled:
174nm/1:07
Distance/Time
To Go:
Arrived

Flight Plot

Page will automatically refresh every two minutes.

Flight plan parsing failed; only flown route is shown


Map Options




Map Legend


Flown Route
Filed Route
Departure Airport
Arrival Airport
Navaid (VOR, NDB)
Fix

Horizontal Profiles

Position Reports

Time Latitude Longitude Heading Altitude Ground
Speed
27-Aug-23 08:45 34.089956 -117.782886 0 947ft 0kts
27-Aug-23 08:46 34.089956 -117.782886 91 947ft 0kts
27-Aug-23 08:47 34.089956 -117.782886 91 947ft 0kts
27-Aug-23 08:48 34.089956 -117.782886 91 947ft 0kts
27-Aug-23 08:49 34.089956 -117.782886 91 947ft 0kts
27-Aug-23 08:50 34.089956 -117.782886 91 947ft 0kts
27-Aug-23 08:51 34.089956 -117.782886 91 947ft 0kts
27-Aug-23 08:52 34.089956 -117.782886 91 947ft 0kts
27-Aug-23 08:53 34.089956 -117.782886 91 947ft 0kts
27-Aug-23 08:54 34.089956 -117.782886 91 947ft 0kts
27-Aug-23 08:55 34.089956 -117.782886 91 947ft 0kts
27-Aug-23 08:56 34.089956 -117.782886 91 947ft 0kts
27-Aug-23 08:57 34.089956 -117.782886 91 947ft 0kts
27-Aug-23 08:58 34.089956 -117.782886 91 947ft 0kts
27-Aug-23 08:59 34.089956 -117.782886 91 947ft 0kts
27-Aug-23 09:00 34.089956 -117.782886 91 947ft 0kts
27-Aug-23 09:01 34.090627 -117.782366 85 992ft 8kts
27-Aug-23 09:02 34.090319 -117.774935 92 1011ft 4kts
27-Aug-23 09:03 34.090493 -117.774644 3 1011ft 0kts
27-Aug-23 09:04 34.090493 -117.774644 3 1011ft 0kts
27-Aug-23 09:05 34.090493 -117.774644 3 1011ft 0kts
27-Aug-23 09:06 34.090899 -117.774617 344 1017ft 1kts
27-Aug-23 09:07 34.092181 -117.795467 277 1312ft 131kts
27-Aug-23 09:08 34.068379 -117.796321 162 2741ft 134kts
27-Aug-23 09:09 34.032559 -117.792034 178 4349ft 131kts
27-Aug-23 09:10 34.007837 -117.774203 90 6160ft 122kts
27-Aug-23 09:11 33.991854 -117.733975 116 7002ft 164kts
27-Aug-23 09:12 33.975960 -117.676971 109 7134ft 186kts
27-Aug-23 09:13 33.956890 -117.617873 108 7099ft 196kts
27-Aug-23 09:14 33.936803 -117.557628 122 7025ft 191kts
27-Aug-23 09:15 33.900995 -117.513609 149 7276ft 175kts
27-Aug-23 09:16 33.862190 -117.484248 152 8444ft 153kts
27-Aug-23 09:17 33.829803 -117.458111 149 10210ft 128kts
27-Aug-23 09:18 33.797505 -117.431467 153 11001ft 166kts
27-Aug-23 09:19 33.759000 -117.395544 147 11029ft 177kts
27-Aug-23 09:20 33.728852 -117.350747 100 11024ft 190kts
27-Aug-23 09:21 33.728165 -117.286882 94 11027ft 193kts
27-Aug-23 09:22 33.718824 -117.224317 98 11006ft 192kts
27-Aug-23 09:23 33.713769 -117.160694 100 11036ft 192kts
27-Aug-23 09:24 33.708519 -117.096921 100 11049ft 192kts
27-Aug-23 09:25 33.702655 -117.037014 104 11921ft 171kts
27-Aug-23 09:26 33.699968 -116.981696 92 12993ft 170kts
27-Aug-23 09:27 33.693857 -116.921040 103 13060ft 184kts
27-Aug-23 09:28 33.688846 -116.857335 100 12975ft 195kts
27-Aug-23 09:29 33.683103 -116.792814 100 13015ft 195kts
27-Aug-23 09:30 33.677691 -116.727719 101 12867ft 195kts
27-Aug-23 09:31 33.672175 -116.663105 101 12939ft 195kts
27-Aug-23 09:32 33.666583 -116.598089 101 12925ft 193kts
27-Aug-23 09:33 33.661024 -116.533483 102 12907ft 192kts
27-Aug-23 09:34 33.655507 -116.470118 101 12921ft 193kts
27-Aug-23 09:35 33.649950 -116.407022 101 12826ft 192kts
27-Aug-23 09:36 33.644378 -116.343332 101 12877ft 193kts
27-Aug-23 09:37 33.638734 -116.279514 101 12867ft 190kts
27-Aug-23 09:38 33.633864 -116.215791 96 12862ft 194kts
27-Aug-23 09:39 33.632729 -116.151089 79 12791ft 201kts
27-Aug-23 09:40 33.649128 -116.087534 77 12862ft 199kts
27-Aug-23 09:41 33.673414 -116.027124 67 12865ft 201kts
27-Aug-23 09:42 33.698868 -115.966936 67 12870ft 202kts
27-Aug-23 09:43 33.716811 -115.903986 69 12876ft 203kts
27-Aug-23 09:44 33.737986 -115.841120 74 12888ft 202kts
27-Aug-23 09:45 33.757519 -115.778255 74 12896ft 200kts
27-Aug-23 09:46 33.777056 -115.715809 74 12897ft 199kts
27-Aug-23 09:47 33.796707 -115.653201 73 12919ft 201kts
27-Aug-23 09:48 33.816393 -115.590487 73 12922ft 202kts
27-Aug-23 09:50 33.836310 -115.527208 74 12922ft 201kts
27-Aug-23 09:51 33.855341 -115.463846 74 12916ft 201kts
27-Aug-23 09:52 33.874317 -115.400409 74 12906ft 201kts
27-Aug-23 09:53 33.893206 -115.337139 75 12909ft 202kts
27-Aug-23 09:54 33.912188 -115.273340 74 12913ft 202kts
27-Aug-23 09:55 33.931155 -115.209688 74 12906ft 201kts
27-Aug-23 09:56 33.950061 -115.146111 74 12910ft 202kts
27-Aug-23 09:57 33.969087 -115.082097 74 12914ft 203kts
27-Aug-23 09:58 33.988462 -115.015380 74 11956ft 209kts
27-Aug-23 09:59 34.011853 -114.952590 53 10896ft 206kts
27-Aug-23 10:00 34.040498 -114.893739 63 9889ft 202kts
27-Aug-23 10:01 34.059895 -114.831418 77 8795ft 195kts
27-Aug-23 10:02 34.072113 -114.768511 77 7742ft 190kts
27-Aug-23 10:03 34.086482 -114.708150 72 6973ft 184kts
27-Aug-23 10:04 34.097584 -114.647688 83 6970ft 185kts
27-Aug-23 10:05 34.104830 -114.586104 79 6966ft 182kts
27-Aug-23 10:06 34.112665 -114.527101 79 6879ft 173kts
27-Aug-23 10:07 34.119969 -114.466801 79 5435ft 182kts
27-Aug-23 10:08 34.131665 -114.410248 64 4069ft 166kts
27-Aug-23 10:09 34.149015 -114.359234 68 2954ft 157kts
27-Aug-23 10:10 34.158323 -114.306853 89 1980ft 150kts
27-Aug-23 10:11 34.146835 -114.261309 122 1304ft 138kts
27-Aug-23 10:12 34.150348 -114.252958 230 1242ft 115kts
27-Aug-23 10:13 34.121088 -114.266469 233 1101ft 105kts
27-Aug-23 10:13 34.138273 -114.274737 28 608ft 97kts
27-Aug-23 10:15 34.151188 -114.267774 294 446ft 7kts
27-Aug-23 10:16 34.152449 -114.270930 269 447ft 12kts
27-Aug-23 10:17 34.152091 -114.271945 285 447ft 0kts
27-Aug-23 10:18 34.152091 -114.271945 285 447ft 0kts

Navigation Log

Ident Type
Flight plan parsing failed, navigation log unavailable